sensor_id;sensor_type;location;lat;lon;timestamp;P1;durP1;ratioP1;P2;durP2;ratioP2
8626;SDS011;4351;51.422;6.794;2023-12-14T00:01:14;22.13;;;13.23;;
8626;SDS011;4351;51.422;6.794;2023-12-14T00:03:42;22.97;;;13.77;;
8626;SDS011;4351;51.422;6.794;2023-12-14T00:06:10;24.17;;;13.97;;
8626;SDS011;4351;51.422;6.794;2023-12-14T00:08:38;23.13;;;13.57;;
8626;SDS011;4351;51.422;6.794;2023-12-14T00:11:08;20.63;;;12.47;;
8626;SDS011;4351;51.422;6.794;2023-12-14T00:13:35;20.93;;;12.27;;
8626;SDS011;4351;51.422;6.794;2023-12-14T00:16:03;19.27;;;11.97;;
8626;SDS011;4351;51.422;6.794;2023-12-14T00:18:31;16.63;;;10.27;;
8626;SDS011;4351;51.422;6.794;2023-12-14T00:20:59;16.50;;;10.43;;
8626;SDS011;4351;51.422;6.794;2023-12-14T00:23:26;16.40;;;9.07;;
8626;SDS011;4351;51.422;6.794;2023-12-14T00:25:54;14.30;;;8.93;;
8626;SDS011;4351;51.422;6.794;2023-12-14T00:28:23;15.43;;;9.30;;
8626;SDS011;4351;51.422;6.794;2023-12-14T00:30:56;13.20;;;8.67;;
8626;SDS011;4351;51.422;6.794;2023-12-14T00:33:24;14.40;;;9.20;;
8626;SDS011;4351;51.422;6.794;2023-12-14T00:35:51;16.50;;;9.20;;
8626;SDS011;4351;51.422;6.794;2023-12-14T00:38:19;12.53;;;8.53;;
8626;SDS011;4351;51.422;6.794;2023-12-14T00:40:47;13.80;;;8.57;;
8626;SDS011;4351;51.422;6.794;2023-12-14T00:43:15;11.87;;;8.20;;
8626;SDS011;4351;51.422;6.794;2023-12-14T00:45:44;13.43;;;8.90;;
8626;SDS011;4351;51.422;6.794;2023-12-14T00:48:12;11.83;;;7.70;;
8626;SDS011;4351;51.422;6.794;2023-12-14T00:50:39;12.17;;;8.13;;
8626;SDS011;4351;51.422;6.794;2023-12-14T00:53:07;13.53;;;8.20;;
8626;SDS011;4351;51.422;6.794;2023-12-14T00:55:35;11.30;;;7.57;;
8626;SDS011;4351;51.422;6.794;2023-12-14T00:58:02;12.77;;;7.07;;
8626;SDS011;4351;51.422;6.794;2023-12-14T01:00:30;12.00;;;7.33;;
8626;SDS011;4351;51.422;6.794;2023-12-14T01:02:59;11.40;;;7.57;;
8626;SDS011;4351;51.422;6.794;2023-12-14T01:05:27;8.20;;;5.97;;
8626;SDS011;4351;51.422;6.794;2023-12-14T01:07:55;10.23;;;6.60;;
8626;SDS011;4351;51.422;6.794;2023-12-14T01:10:22;11.17;;;7.80;;
8626;SDS011;4351;51.422;6.794;2023-12-14T01:12:50;9.90;;;7.03;;
8626;SDS011;4351;51.422;6.794;2023-12-14T01:15:18;10.57;;;7.13;;
8626;SDS011;4351;51.422;6.794;2023-12-14T01:17:45;10.23;;;6.87;;
8626;SDS011;4351;51.422;6.794;2023-12-14T01:20:15;9.30;;;6.50;;
8626;SDS011;4351;51.422;6.794;2023-12-14T01:22:43;8.63;;;6.37;;
8626;SDS011;4351;51.422;6.794;2023-12-14T01:25:10;8.73;;;6.23;;
8626;SDS011;4351;51.422;6.794;2023-12-14T01:27:38;8.17;;;5.70;;
8626;SDS011;4351;51.422;6.794;2023-12-14T01:30:06;9.10;;;6.07;;
8626;SDS011;4351;51.422;6.794;2023-12-14T01:32:34;6.97;;;5.40;;
8626;SDS011;4351;51.422;6.794;2023-12-14T01:35:03;6.43;;;5.00;;
8626;SDS011;4351;51.422;6.794;2023-12-14T01:37:32;7.13;;;5.53;;
8626;SDS011;4351;51.422;6.794;2023-12-14T01:40:00;8.00;;;5.77;;
8626;SDS011;4351;51.422;6.794;2023-12-14T01:42:28;7.20;;;5.40;;
8626;SDS011;4351;51.422;6.794;2023-12-14T01:44:57;7.33;;;5.70;;
8626;SDS011;4351;51.422;6.794;2023-12-14T01:47:25;8.47;;;6.20;;
8626;SDS011;4351;51.422;6.794;2023-12-14T01:49:53;9.57;;;6.67;;
8626;SDS011;4351;51.422;6.794;2023-12-14T01:52:20;9.40;;;7.57;;
8626;SDS011;4351;51.422;6.794;2023-12-14T01:54:50;10.40;;;7.60;;
8626;SDS011;4351;51.422;6.794;2023-12-14T01:57:18;11.50;;;8.73;;
8626;SDS011;4351;51.422;6.794;2023-12-14T01:59:45;13.23;;;9.50;;
8626;SDS011;4351;51.422;6.794;2023-12-14T02:02:13;12.67;;;9.73;;
8626;SDS011;4351;51.422;6.794;2023-12-14T02:04:41;15.87;;;10.73;;
8626;SDS011;4351;51.422;6.794;2023-12-14T02:07:09;14.70;;;10.00;;
8626;SDS011;4351;51.422;6.794;2023-12-14T02:09:37;17.23;;;12.00;;
8626;SDS011;4351;51.422;6.794;2023-12-14T02:12:06;15.43;;;10.90;;
8626;SDS011;4351;51.422;6.794;2023-12-14T02:14:34;17.10;;;11.17;;
8626;SDS011;4351;51.422;6.794;2023-12-14T02:17:01;15.43;;;10.60;;
8626;SDS011;4351;51.422;6.794;2023-12-14T02:19:29;16.80;;;11.40;;
8626;SDS011;4351;51.422;6.794;2023-12-14T02:21:57;16.67;;;10.70;;
8626;SDS011;4351;51.422;6.794;2023-12-14T02:24:26;17.27;;;11.80;;
8626;SDS011;4351;51.422;6.794;2023-12-14T02:26:53;20.83;;;12.47;;
8626;SDS011;4351;51.422;6.794;2023-12-14T02:29:29;20.40;;;12.83;;
8626;SDS011;4351;51.422;6.794;2023-12-14T02:31:57;20.83;;;13.03;;
8626;SDS011;4351;51.422;6.794;2023-12-14T02:34:25;22.13;;;13.63;;
8626;SDS011;4351;51.422;6.794;2023-12-14T02:36:53;22.33;;;14.30;;
8626;SDS011;4351;51.422;6.794;2023-12-14T02:39:20;22.70;;;14.50;;
8626;SDS011;4351;51.422;6.794;2023-12-14T02:41:49;25.47;;;14.93;;
8626;SDS011;4351;51.422;6.794;2023-12-14T02:44:17;23.80;;;15.33;;
8626;SDS011;4351;51.422;6.794;2023-12-14T02:46:44;23.27;;;15.00;;
8626;SDS011;4351;51.422;6.794;2023-12-14T02:49:12;22.47;;;13.50;;
8626;SDS011;4351;51.422;6.794;2023-12-14T02:51:40;19.20;;;12.50;;
8626;SDS011;4351;51.422;6.794;2023-12-14T02:54:07;22.03;;;12.63;;
8626;SDS011;4351;51.422;6.794;2023-12-14T02:56:35;19.23;;;12.47;;
8626;SDS011;4351;51.422;6.794;2023-12-14T02:59:05;22.90;;;12.60;;
8626;SDS011;4351;51.422;6.794;2023-12-14T03:01:33;15.93;;;10.60;;
8626;SDS011;4351;51.422;6.794;2023-12-14T03:04:00;18.43;;;10.40;;
8626;SDS011;4351;51.422;6.794;2023-12-14T03:06:28;18.13;;;11.00;;
8626;SDS011;4351;51.422;6.794;2023-12-14T03:08:55;16.57;;;10.43;;
8626;SDS011;4351;51.422;6.794;2023-12-14T03:11:23;19.23;;;11.10;;
8626;SDS011;4351;51.422;6.794;2023-12-14T03:13:51;17.50;;;11.30;;
8626;SDS011;4351;51.422;6.794;2023-12-14T03:16:20;20.30;;;12.00;;
8626;SDS011;4351;51.422;6.794;2023-12-14T03:18:49;20.23;;;12.70;;
8626;SDS011;4351;51.422;6.794;2023-12-14T03:21:19;19.73;;;11.87;;
8626;SDS011;4351;51.422;6.794;2023-12-14T03:23:47;20.07;;;12.53;;
8626;SDS011;4351;51.422;6.794;2023-12-14T03:26:14;19.30;;;12.00;;
8626;SDS011;4351;51.422;6.794;2023-12-14T03:28:42;17.53;;;11.60;;
8626;SDS011;4351;51.422;6.794;2023-12-14T03:31:10;19.20;;;10.73;;
8626;SDS011;4351;51.422;6.794;2023-12-14T03:33:40;20.23;;;11.47;;
8626;SDS011;4351;51.422;6.794;2023-12-14T03:36:08;18.57;;;11.50;;
8626;SDS011;4351;51.422;6.794;2023-12-14T03:38:35;21.07;;;12.33;;
8626;SDS011;4351;51.422;6.794;2023-12-14T03:41:03;19.57;;;12.10;;
8626;SDS011;4351;51.422;6.794;2023-12-14T03:43:31;20.93;;;11.73;;
8626;SDS011;4351;51.422;6.794;2023-12-14T03:45:59;19.80;;;11.27;;
8626;SDS011;4351;51.422;6.794;2023-12-14T03:48:26;20.83;;;12.40;;
8626;SDS011;4351;51.422;6.794;2023-12-14T03:50:55;22.23;;;13.03;;
8626;SDS011;4351;51.422;6.794;2023-12-14T03:53:23;25.43;;;14.17;;
8626;SDS011;4351;51.422;6.794;2023-12-14T03:55:50;21.13;;;13.03;;
8626;SDS011;4351;51.422;6.794;2023-12-14T03:58:18;23.07;;;13.83;;
8626;SDS011;4351;51.422;6.794;2023-12-14T04:00:46;25.10;;;15.10;;
8626;SDS011;4351;51.422;6.794;2023-12-14T04:03:13;25.53;;;15.13;;
8626;SDS011;4351;51.422;6.794;2023-12-14T04:05:41;28.67;;;16.37;;
8626;SDS011;4351;51.422;6.794;2023-12-14T04:08:12;26.67;;;16.03;;
8626;SDS011;4351;51.422;6.794;2023-12-14T04:10:39;27.27;;;16.07;;
8626;SDS011;4351;51.422;6.794;2023-12-14T04:13:07;28.27;;;16.20;;
8626;SDS011;4351;51.422;6.794;2023-12-14T04:15:34;31.33;;;17.17;;
8626;SDS011;4351;51.422;6.794;2023-12-14T04:18:02;26.47;;;15.93;;
8626;SDS011;4351;51.422;6.794;2023-12-14T04:20:30;28.77;;;16.47;;
8626;SDS011;4351;51.422;6.794;2023-12-14T04:22:57;30.20;;;16.03;;
8626;SDS011;4351;51.422;6.794;2023-12-14T04:25:27;29.57;;;16.63;;
8626;SDS011;4351;51.422;6.794;2023-12-14T04:27:54;29.23;;;16.27;;
8626;SDS011;4351;51.422;6.794;2023-12-14T04:30:22;26.43;;;16.00;;
8626;SDS011;4351;51.422;6.794;2023-12-14T04:32:49;29.43;;;17.07;;
8626;SDS011;4351;51.422;6.794;2023-12-14T04:35:18;27.93;;;16.63;;
8626;SDS011;4351;51.422;6.794;2023-12-14T04:37:48;29.00;;;16.57;;
8626;SDS011;4351;51.422;6.794;2023-12-14T04:40:16;28.23;;;16.50;;
8626;SDS011;4351;51.422;6.794;2023-12-14T04:42:45;31.37;;;16.80;;
8626;SDS011;4351;51.422;6.794;2023-12-14T04:45:12;27.93;;;15.10;;
8626;SDS011;4351;51.422;6.794;2023-12-14T04:47:40;27.67;;;15.83;;
8626;SDS011;4351;51.422;6.794;2023-12-14T04:50:09;25.33;;;15.70;;
8626;SDS011;4351;51.422;6.794;2023-12-14T04:52:38;28.43;;;15.97;;
8626;SDS011;4351;51.422;6.794;2023-12-14T04:55:06;29.83;;;15.00;;
8626;SDS011;4351;51.422;6.794;2023-12-14T04:57:34;23.90;;;15.27;;
8626;SDS011;4351;51.422;6.794;2023-12-14T05:00:04;25.03;;;13.83;;
8626;SDS011;4351;51.422;6.794;2023-12-14T05:02:32;26.07;;;14.67;;
8626;SDS011;4351;51.422;6.794;2023-12-14T05:05:00;25.43;;;13.63;;
8626;SDS011;4351;51.422;6.794;2023-12-14T05:07:27;23.97;;;13.53;;
8626;SDS011;4351;51.422;6.794;2023-12-14T05:09:57;26.17;;;14.90;;
8626;SDS011;4351;51.422;6.794;2023-12-14T05:12:24;23.93;;;13.50;;
8626;SDS011;4351;51.422;6.794;2023-12-14T05:14:53;24.17;;;13.63;;
8626;SDS011;4351;51.422;6.794;2023-12-14T05:17:22;22.50;;;13.33;;
8626;SDS011;4351;51.422;6.794;2023-12-14T05:19:49;24.07;;;13.93;;
8626;SDS011;4351;51.422;6.794;2023-12-14T05:22:17;24.23;;;13.87;;
8626;SDS011;4351;51.422;6.794;2023-12-14T05:24:46;21.20;;;12.60;;
8626;SDS011;4351;51.422;6.794;2023-12-14T05:27:13;23.50;;;13.47;;
8626;SDS011;4351;51.422;6.794;2023-12-14T05:29:41;21.17;;;12.73;;
8626;SDS011;4351;51.422;6.794;2023-12-14T05:32:09;22.13;;;12.83;;
8626;SDS011;4351;51.422;6.794;2023-12-14T05:34:38;23.03;;;13.20;;
8626;SDS011;4351;51.422;6.794;2023-12-14T05:37:06;24.30;;;13.40;;
8626;SDS011;4351;51.422;6.794;2023-12-14T05:39:34;21.83;;;13.03;;
8626;SDS011;4351;51.422;6.794;2023-12-14T05:42:01;24.43;;;14.53;;
8626;SDS011;4351;51.422;6.794;2023-12-14T05:44:29;22.97;;;14.00;;
8626;SDS011;4351;51.422;6.794;2023-12-14T05:46:56;23.93;;;13.70;;
8626;SDS011;4351;51.422;6.794;2023-12-14T05:49:24;25.77;;;15.17;;
8626;SDS011;4351;51.422;6.794;2023-12-14T05:51:53;23.97;;;13.73;;
8626;SDS011;4351;51.422;6.794;2023-12-14T05:54:21;25.17;;;14.23;;
8626;SDS011;4351;51.422;6.794;2023-12-14T05:56:48;26.67;;;14.60;;
8626;SDS011;4351;51.422;6.794;2023-12-14T05:59:16;26.27;;;14.90;;
8626;SDS011;4351;51.422;6.794;2023-12-14T06:01:44;26.03;;;15.83;;
8626;SDS011;4351;51.422;6.794;2023-12-14T06:04:11;29.90;;;16.67;;
8626;SDS011;4351;51.422;6.794;2023-12-14T06:06:39;28.70;;;15.67;;
8626;SDS011;4351;51.422;6.794;2023-12-14T06:09:08;28.63;;;16.00;;
8626;SDS011;4351;51.422;6.794;2023-12-14T06:11:36;29.23;;;17.17;;
8626;SDS011;4351;51.422;6.794;2023-12-14T06:14:04;28.83;;;16.30;;
8626;SDS011;4351;51.422;6.794;2023-12-14T06:16:31;28.90;;;16.47;;
8626;SDS011;4351;51.422;6.794;2023-12-14T06:18:59;28.13;;;16.30;;
8626;SDS011;4351;51.422;6.794;2023-12-14T06:21:27;25.47;;;14.77;;
8626;SDS011;4351;51.422;6.794;2023-12-14T06:23:55;29.40;;;15.23;;
8626;SDS011;4351;51.422;6.794;2023-12-14T06:26:24;27.93;;;14.60;;
8626;SDS011;4351;51.422;6.794;2023-12-14T06:28:52;31.33;;;16.27;;
8626;SDS011;4351;51.422;6.794;2023-12-14T06:31:20;28.30;;;16.23;;
8626;SDS011;4351;51.422;6.794;2023-12-14T06:33:48;31.17;;;16.10;;
8626;SDS011;4351;51.422;6.794;2023-12-14T06:36:16;27.13;;;15.30;;
8626;SDS011;4351;51.422;6.794;2023-12-14T06:38:44;30.43;;;16.67;;
8626;SDS011;4351;51.422;6.794;2023-12-14T06:41:18;29.63;;;16.07;;
8626;SDS011;4351;51.422;6.794;2023-12-14T06:43:47;28.67;;;16.17;;
8626;SDS011;4351;51.422;6.794;2023-12-14T06:46:15;30.93;;;16.70;;
8626;SDS011;4351;51.422;6.794;2023-12-14T06:48:42;32.63;;;17.80;;
8626;SDS011;4351;51.422;6.794;2023-12-14T06:51:11;31.57;;;16.90;;
8626;SDS011;4351;51.422;6.794;2023-12-14T06:53:39;31.90;;;17.83;;
8626;SDS011;4351;51.422;6.794;2023-12-14T06:56:07;31.00;;;17.50;;
8626;SDS011;4351;51.422;6.794;2023-12-14T06:58:37;34.03;;;17.30;;
8626;SDS011;4351;51.422;6.794;2023-12-14T07:01:06;32.73;;;18.47;;
8626;SDS011;4351;51.422;6.794;2023-12-14T07:03:34;36.33;;;18.77;;
8626;SDS011;4351;51.422;6.794;2023-12-14T07:06:02;32.63;;;18.67;;
8626;SDS011;4351;51.422;6.794;2023-12-14T07:08:30;31.10;;;18.47;;
8626;SDS011;4351;51.422;6.794;2023-12-14T07:10:57;30.60;;;17.70;;
8626;SDS011;4351;51.422;6.794;2023-12-14T07:13:25;34.17;;;17.90;;
8626;SDS011;4351;51.422;6.794;2023-12-14T07:15:52;34.97;;;18.13;;
8626;SDS011;4351;51.422;6.794;2023-12-14T07:18:21;33.37;;;18.67;;
8626;SDS011;4351;51.422;6.794;2023-12-14T07:20:49;33.13;;;18.23;;
8626;SDS011;4351;51.422;6.794;2023-12-14T07:23:17;33.30;;;19.47;;
8626;SDS011;4351;51.422;6.794;2023-12-14T07:25:45;38.50;;;20.27;;
8626;SDS011;4351;51.422;6.794;2023-12-14T07:28:13;35.47;;;19.97;;
8626;SDS011;4351;51.422;6.794;2023-12-14T07:30:40;37.80;;;21.53;;
8626;SDS011;4351;51.422;6.794;2023-12-14T07:33:08;40.57;;;21.63;;
8626;SDS011;4351;51.422;6.794;2023-12-14T07:35:37;42.87;;;23.33;;
8626;SDS011;4351;51.422;6.794;2023-12-14T07:38:05;45.10;;;23.37;;
8626;SDS011;4351;51.422;6.794;2023-12-14T07:40:33;44.70;;;23.80;;
8626;SDS011;4351;51.422;6.794;2023-12-14T07:43:00;42.90;;;22.37;;
8626;SDS011;4351;51.422;6.794;2023-12-14T07:45:28;42.30;;;23.13;;
8626;SDS011;4351;51.422;6.794;2023-12-14T07:47:56;43.17;;;22.87;;
8626;SDS011;4351;51.422;6.794;2023-12-14T07:50:25;41.83;;;22.67;;
8626;SDS011;4351;51.422;6.794;2023-12-14T07:52:54;42.77;;;24.03;;
8626;SDS011;4351;51.422;6.794;2023-12-14T07:55:22;49.07;;;25.60;;
8626;SDS011;4351;51.422;6.794;2023-12-14T07:57:49;47.77;;;24.80;;
8626;SDS011;4351;51.422;6.794;2023-12-14T08:00:18;43.97;;;23.60;;
8626;SDS011;4351;51.422;6.794;2023-12-14T08:02:45;44.27;;;23.57;;
8626;SDS011;4351;51.422;6.794;2023-12-14T08:05:13;45.70;;;23.53;;
8626;SDS011;4351;51.422;6.794;2023-12-14T08:07:41;39.93;;;21.63;;
8626;SDS011;4351;51.422;6.794;2023-12-14T08:10:10;44.43;;;23.03;;
8626;SDS011;4351;51.422;6.794;2023-12-14T08:12:38;41.90;;;22.20;;
8626;SDS011;4351;51.422;6.794;2023-12-14T08:15:06;43.37;;;22.13;;
8626;SDS011;4351;51.422;6.794;2023-12-14T08:17:34;42.70;;;22.73;;
8626;SDS011;4351;51.422;6.794;2023-12-14T08:20:02;42.23;;;21.67;;
8626;SDS011;4351;51.422;6.794;2023-12-14T08:22:31;40.60;;;21.27;;
8626;SDS011;4351;51.422;6.794;2023-12-14T08:24:59;38.00;;;21.17;;
8626;SDS011;4351;51.422;6.794;2023-12-14T08:27:28;42.53;;;22.13;;
8626;SDS011;4351;51.422;6.794;2023-12-14T08:29:55;37.60;;;21.47;;
8626;SDS011;4351;51.422;6.794;2023-12-14T08:32:23;38.53;;;20.57;;
8626;SDS011;4351;51.422;6.794;2023-12-14T08:34:51;37.63;;;19.90;;
8626;SDS011;4351;51.422;6.794;2023-12-14T08:37:19;36.43;;;20.50;;
8626;SDS011;4351;51.422;6.794;2023-12-14T08:39:47;36.57;;;19.60;;
8626;SDS011;4351;51.422;6.794;2023-12-14T08:42:16;35.57;;;20.60;;
8626;SDS011;4351;51.422;6.794;2023-12-14T08:44:45;34.87;;;20.03;;
8626;SDS011;4351;51.422;6.794;2023-12-14T08:47:13;37.17;;;20.60;;
8626;SDS011;4351;51.422;6.794;2023-12-14T08:49:41;35.50;;;20.17;;
8626;SDS011;4351;51.422;6.794;2023-12-14T08:52:09;34.80;;;19.23;;
8626;SDS011;4351;51.422;6.794;2023-12-14T08:54:38;33.63;;;19.30;;
8626;SDS011;4351;51.422;6.794;2023-12-14T08:57:05;33.23;;;19.60;;
8626;SDS011;4351;51.422;6.794;2023-12-14T08:59:33;32.63;;;19.00;;
8626;SDS011;4351;51.422;6.794;2023-12-14T09:02:02;32.67;;;18.80;;
8626;SDS011;4351;51.422;6.794;2023-12-14T09:04:32;32.87;;;19.63;;
8626;SDS011;4351;51.422;6.794;2023-12-14T09:07:05;33.23;;;19.67;;
8626;SDS011;4351;51.422;6.794;2023-12-14T09:09:32;33.63;;;18.80;;
8626;SDS011;4351;51.422;6.794;2023-12-14T09:12:00;33.43;;;18.50;;
8626;SDS011;4351;51.422;6.794;2023-12-14T09:14:28;32.23;;;18.17;;
8626;SDS011;4351;51.422;6.794;2023-12-14T09:16:56;32.10;;;18.70;;
8626;SDS011;4351;51.422;6.794;2023-12-14T09:19:25;31.37;;;17.73;;
8626;SDS011;4351;51.422;6.794;2023-12-14T09:21:53;34.47;;;18.80;;
8626;SDS011;4351;51.422;6.794;2023-12-14T09:24:21;31.07;;;18.03;;
8626;SDS011;4351;51.422;6.794;2023-12-14T09:26:49;32.47;;;18.47;;
8626;SDS011;4351;51.422;6.794;2023-12-14T09:29:17;34.87;;;18.97;;
8626;SDS011;4351;51.422;6.794;2023-12-14T09:31:45;30.77;;;17.23;;
8626;SDS011;4351;51.422;6.794;2023-12-14T09:34:13;33.87;;;18.73;;
8626;SDS011;4351;51.422;6.794;2023-12-14T09:36:42;31.97;;;18.63;;
8626;SDS011;4351;51.422;6.794;2023-12-14T09:39:10;32.70;;;18.73;;
8626;SDS011;4351;51.422;6.794;2023-12-14T09:41:38;31.67;;;18.53;;
8626;SDS011;4351;51.422;6.794;2023-12-14T09:44:06;30.37;;;17.83;;
8626;SDS011;4351;51.422;6.794;2023-12-14T09:46:34;28.43;;;16.37;;
8626;SDS011;4351;51.422;6.794;2023-12-14T09:49:03;25.53;;;16.33;;
8626;SDS011;4351;51.422;6.794;2023-12-14T09:51:34;26.70;;;15.70;;
8626;SDS011;4351;51.422;6.794;2023-12-14T09:54:03;23.77;;;14.97;;
8626;SDS011;4351;51.422;6.794;2023-12-14T09:56:31;21.60;;;13.57;;
8626;SDS011;4351;51.422;6.794;2023-12-14T09:58:59;23.80;;;14.63;;
8626;SDS011;4351;51.422;6.794;2023-12-14T10:01:28;22.40;;;13.50;;
8626;SDS011;4351;51.422;6.794;2023-12-14T10:04:09;20.53;;;13.10;;
8626;SDS011;4351;51.422;6.794;2023-12-14T10:06:37;21.93;;;13.30;;
8626;SDS011;4351;51.422;6.794;2023-12-14T10:09:06;20.03;;;13.13;;
8626;SDS011;4351;51.422;6.794;2023-12-14T10:11:36;22.30;;;13.60;;
8626;SDS011;4351;51.422;6.794;2023-12-14T10:14:06;26.47;;;14.27;;
8626;SDS011;4351;51.422;6.794;2023-12-14T10:16:45;22.60;;;14.47;;
8626;SDS011;4351;51.422;6.794;2023-12-14T10:19:12;23.20;;;14.50;;
8626;SDS011;4351;51.422;6.794;2023-12-14T10:21:40;21.33;;;13.40;;
8626;SDS011;4351;51.422;6.794;2023-12-14T10:24:09;25.90;;;13.73;;
8626;SDS011;4351;51.422;6.794;2023-12-14T10:26:37;24.37;;;14.73;;
8626;SDS011;4351;51.422;6.794;2023-12-14T10:29:05;24.60;;;14.93;;
8626;SDS011;4351;51.422;6.794;2023-12-14T10:31:33;24.33;;;14.87;;
8626;SDS011;4351;51.422;6.794;2023-12-14T10:34:04;25.03;;;15.23;;
8626;SDS011;4351;51.422;6.794;2023-12-14T10:36:32;24.17;;;14.17;;
8626;SDS011;4351;51.422;6.794;2023-12-14T10:39:00;24.40;;;14.80;;
8626;SDS011;4351;51.422;6.794;2023-12-14T10:41:30;21.97;;;14.37;;
8626;SDS011;4351;51.422;6.794;2023-12-14T10:43:58;22.23;;;14.47;;
8626;SDS011;4351;51.422;6.794;2023-12-14T10:46:48;24.33;;;15.00;;
8626;SDS011;4351;51.422;6.794;2023-12-14T10:49:15;22.50;;;14.50;;
8626;SDS011;4351;51.422;6.794;2023-12-14T10:51:43;21.50;;;14.27;;
8626;SDS011;4351;51.422;6.794;2023-12-14T10:54:14;20.63;;;13.27;;
8626;SDS011;4351;51.422;6.794;2023-12-14T10:56:43;18.83;;;13.07;;
8626;SDS011;4351;51.422;6.794;2023-12-14T10:59:12;20.20;;;13.13;;
8626;SDS011;4351;51.422;6.794;2023-12-14T11:01:42;18.83;;;11.53;;
8626;SDS011;4351;51.422;6.794;2023-12-14T11:04:10;21.73;;;11.37;;
8626;SDS011;4351;51.422;6.794;2023-12-14T11:06:41;18.67;;;10.17;;
8626;SDS011;4351;51.422;6.794;2023-12-14T11:09:13;15.50;;;10.43;;
8626;SDS011;4351;51.422;6.794;2023-12-14T11:11:54;18.03;;;11.20;;
8626;SDS011;4351;51.422;6.794;2023-12-14T11:14:24;19.37;;;11.50;;
8626;SDS011;4351;51.422;6.794;2023-12-14T11:16:53;17.73;;;10.67;;
8626;SDS011;4351;51.422;6.794;2023-12-14T11:19:28;17.27;;;11.33;;
8626;SDS011;4351;51.422;6.794;2023-12-14T11:22:09;19.50;;;11.43;;
8626;SDS011;4351;51.422;6.794;2023-12-14T11:24:37;20.13;;;11.60;;
8626;SDS011;4351;51.422;6.794;2023-12-14T11:27:07;17.07;;;9.90;;
8626;SDS011;4351;51.422;6.794;2023-12-14T11:29:35;18.63;;;11.03;;
8626;SDS011;4351;51.422;6.794;2023-12-14T11:32:03;17.00;;;10.57;;
8626;SDS011;4351;51.422;6.794;2023-12-14T11:34:32;15.77;;;10.40;;
8626;SDS011;4351;51.422;6.794;2023-12-14T11:37:00;17.27;;;10.83;;
8626;SDS011;4351;51.422;6.794;2023-12-14T11:39:30;20.33;;;11.47;;
8626;SDS011;4351;51.422;6.794;2023-12-14T11:41:58;18.93;;;11.20;;
8626;SDS011;4351;51.422;6.794;2023-12-14T11:44:27;16.27;;;10.60;;
8626;SDS011;4351;51.422;6.794;2023-12-14T11:46:56;16.80;;;10.50;;
8626;SDS011;4351;51.422;6.794;2023-12-14T11:49:24;16.53;;;10.10;;
8626;SDS011;4351;51.422;6.794;2023-12-14T11:51:53;17.13;;;10.67;;
8626;SDS011;4351;51.422;6.794;2023-12-14T11:54:22;13.93;;;8.67;;
8626;SDS011;4351;51.422;6.794;2023-12-14T11:56:50;16.00;;;8.60;;
8626;SDS011;4351;51.422;6.794;2023-12-14T11:59:18;14.97;;;8.30;;
8626;SDS011;4351;51.422;6.794;2023-12-14T12:01:55;12.77;;;8.37;;
8626;SDS011;4351;51.422;6.794;2023-12-14T12:04:24;14.03;;;8.73;;
8626;SDS011;4351;51.422;6.794;2023-12-14T12:06:58;11.80;;;7.27;;
8626;SDS011;4351;51.422;6.794;2023-12-14T12:09:36;13.00;;;7.90;;
8626;SDS011;4351;51.422;6.794;2023-12-14T12:12:07;10.97;;;7.33;;
8626;SDS011;4351;51.422;6.794;2023-12-14T12:14:36;13.33;;;8.13;;
8626;SDS011;4351;51.422;6.794;2023-12-14T12:17:05;15.43;;;8.93;;
8626;SDS011;4351;51.422;6.794;2023-12-14T12:19:34;12.17;;;7.60;;
8626;SDS011;4351;51.422;6.794;2023-12-14T12:22:03;11.23;;;7.47;;
8626;SDS011;4351;51.422;6.794;2023-12-14T12:24:30;12.40;;;7.40;;
8626;SDS011;4351;51.422;6.794;2023-12-14T12:27:00;12.43;;;7.50;;
8626;SDS011;4351;51.422;6.794;2023-12-14T12:29:28;12.10;;;7.80;;
8626;SDS011;4351;51.422;6.794;2023-12-14T12:31:55;11.43;;;7.20;;
8626;SDS011;4351;51.422;6.794;2023-12-14T12:34:25;11.07;;;7.70;;
8626;SDS011;4351;51.422;6.794;2023-12-14T12:36:52;11.47;;;7.43;;
8626;SDS011;4351;51.422;6.794;2023-12-14T12:39:20;11.73;;;7.37;;
8626;SDS011;4351;51.422;6.794;2023-12-14T12:41:48;14.97;;;8.87;;
8626;SDS011;4351;51.422;6.794;2023-12-14T12:44:16;11.53;;;7.77;;
8626;SDS011;4351;51.422;6.794;2023-12-14T12:46:43;15.10;;;8.07;;
8626;SDS011;4351;51.422;6.794;2023-12-14T12:49:24;14.27;;;8.13;;
8626;SDS011;4351;51.422;6.794;2023-12-14T12:51:52;14.63;;;8.40;;
8626;SDS011;4351;51.422;6.794;2023-12-14T12:54:20;15.30;;;9.37;;
8626;SDS011;4351;51.422;6.794;2023-12-14T12:56:47;16.33;;;9.57;;
8626;SDS011;4351;51.422;6.794;2023-12-14T12:59:15;16.43;;;9.43;;
8626;SDS011;4351;51.422;6.794;2023-12-14T13:01:43;16.10;;;9.57;;
8626;SDS011;4351;51.422;6.794;2023-12-14T13:04:18;14.87;;;8.83;;
8626;SDS011;4351;51.422;6.794;2023-12-14T13:06:48;17.10;;;9.00;;
8626;SDS011;4351;51.422;6.794;2023-12-14T13:09:16;15.43;;;8.60;;
8626;SDS011;4351;51.422;6.794;2023-12-14T13:11:45;13.00;;;8.50;;
8626;SDS011;4351;51.422;6.794;2023-12-14T13:14:13;14.77;;;8.13;;
8626;SDS011;4351;51.422;6.794;2023-12-14T13:16:41;13.57;;;8.03;;
8626;SDS011;4351;51.422;6.794;2023-12-14T13:19:09;12.27;;;7.40;;
8626;SDS011;4351;51.422;6.794;2023-12-14T13:21:37;11.67;;;6.70;;
8626;SDS011;4351;51.422;6.794;2023-12-14T13:24:06;11.03;;;7.07;;
8626;SDS011;4351;51.422;6.794;2023-12-14T13:26:34;12.73;;;7.60;;
8626;SDS011;4351;51.422;6.794;2023-12-14T13:29:02;14.70;;;8.97;;
8626;SDS011;4351;51.422;6.794;2023-12-14T13:31:30;10.23;;;7.00;;
8626;SDS011;4351;51.422;6.794;2023-12-14T13:33:58;14.37;;;6.97;;
8626;SDS011;4351;51.422;6.794;2023-12-14T13:36:25;12.87;;;7.10;;
8626;SDS011;4351;51.422;6.794;2023-12-14T13:38:53;12.33;;;7.93;;
8626;SDS011;4351;51.422;6.794;2023-12-14T13:41:24;10.03;;;6.57;;
8626;SDS011;4351;51.422;6.794;2023-12-14T13:43:52;12.80;;;7.60;;
8626;SDS011;4351;51.422;6.794;2023-12-14T13:46:19;9.40;;;6.50;;
8626;SDS011;4351;51.422;6.794;2023-12-14T13:48:50;10.47;;;7.10;;
8626;SDS011;4351;51.422;6.794;2023-12-14T13:51:19;12.17;;;7.07;;
8626;SDS011;4351;51.422;6.794;2023-12-14T13:53:47;11.87;;;7.60;;
8626;SDS011;4351;51.422;6.794;2023-12-14T13:56:15;13.80;;;8.00;;
8626;SDS011;4351;51.422;6.794;2023-12-14T13:58:44;13.23;;;7.97;;
8626;SDS011;4351;51.422;6.794;2023-12-14T14:01:12;10.23;;;7.20;;
8626;SDS011;4351;51.422;6.794;2023-12-14T14:03:41;11.47;;;7.43;;
8626;SDS011;4351;51.422;6.794;2023-12-14T14:06:09;12.33;;;7.53;;
8626;SDS011;4351;51.422;6.794;2023-12-14T14:08:36;13.90;;;8.17;;
8626;SDS011;4351;51.422;6.794;2023-12-14T14:11:04;11.50;;;7.77;;
8626;SDS011;4351;51.422;6.794;2023-12-14T14:13:36;13.20;;;8.47;;
8626;SDS011;4351;51.422;6.794;2023-12-14T14:16:05;10.07;;;7.07;;
8626;SDS011;4351;51.422;6.794;2023-12-14T14:18:33;11.00;;;7.30;;
8626;SDS011;4351;51.422;6.794;2023-12-14T14:21:01;11.90;;;6.93;;
8626;SDS011;4351;51.422;6.794;2023-12-14T14:23:33;12.60;;;7.53;;
8626;SDS011;4351;51.422;6.794;2023-12-14T14:26:01;15.30;;;7.47;;
8626;SDS011;4351;51.422;6.794;2023-12-14T14:28:29;10.83;;;7.40;;
8626;SDS011;4351;51.422;6.794;2023-12-14T14:30:56;11.33;;;7.77;;
8626;SDS011;4351;51.422;6.794;2023-12-14T14:33:26;13.17;;;7.97;;
8626;SDS011;4351;51.422;6.794;2023-12-14T14:35:54;11.30;;;7.43;;
8626;SDS011;4351;51.422;6.794;2023-12-14T14:38:22;13.77;;;8.57;;
8626;SDS011;4351;51.422;6.794;2023-12-14T14:40:49;16.37;;;9.37;;
8626;SDS011;4351;51.422;6.794;2023-12-14T14:43:17;14.37;;;8.73;;
8626;SDS011;4351;51.422;6.794;2023-12-14T14:45:45;13.63;;;8.70;;
8626;SDS011;4351;51.422;6.794;2023-12-14T14:48:13;12.43;;;8.60;;
8626;SDS011;4351;51.422;6.794;2023-12-14T14:50:42;14.50;;;8.87;;
8626;SDS011;4351;51.422;6.794;2023-12-14T14:53:10;15.73;;;9.50;;
8626;SDS011;4351;51.422;6.794;2023-12-14T14:55:39;14.07;;;9.40;;
8626;SDS011;4351;51.422;6.794;2023-12-14T14:58:07;15.13;;;10.03;;
8626;SDS011;4351;51.422;6.794;2023-12-14T15:00:35;13.87;;;9.40;;